Terminal Aerodrome Forecast
Issued by NWS Wichita, KS

Home | Current Version | Previous Version | Text Only | Print | Product List | Glossary On
Versions: 1 2 3 4 5 6 7 8 9 10 11 12 13 14 15 16 17 18 19 20 21 22 23 24 25 26 27 28 29 30 31 32 33 34 35 36 37 38 39 40 41 42
000
FTUS43 KICT 151925 AAA
TAFICT
TAF AMD
KICT 151925Z 1519/1618 19011G20KT P6SM BKN035
     FM152200 16008KT P6SM SCT035 BKN250
     FM160100 14006KT P6SM BKN250
     FM160300 VRB05KT P6SM VCTS SCT070 BKN180CB
     FM160900 VRB05KT P6SM VCSH SCT025 OVC100
      TEMPO 1609/1613 BKN025
     FM161300 VRB06KT P6SM OVC100=

USA.gov is the U.S. government's official web portal to all federal, state and local government web resources and services.